createdAt,value
2022-08-11T00:03:19.794Z,20.72
2022-08-11T00:07:24.009Z,20.67
2022-08-11T00:11:35.464Z,20.65
2022-08-11T00:15:42.365Z,20.63
2022-08-11T00:20:11.602Z,20.62
2022-08-11T00:24:13.177Z,20.58
2022-08-11T00:28:27.015Z,20.53
2022-08-11T00:32:31.870Z,20.49
2022-08-11T00:36:47.288Z,20.43
2022-08-11T00:40:58.220Z,20.39
2022-08-11T00:45:09.191Z,20.37
2022-08-11T00:49:25.108Z,20.34
2022-08-11T00:53:40.129Z,20.32
2022-08-11T00:58:13.675Z,20.31
2022-08-11T01:02:46.279Z,20.27
2022-08-11T01:08:01.685Z,20.24
2022-08-11T01:12:29.325Z,20.16
2022-08-11T01:17:05.187Z,20.15
2022-08-11T01:21:44.562Z,20.14
2022-08-11T01:26:21.022Z,20.09
2022-08-11T01:30:57.197Z,20.10
2022-08-11T01:35:37.383Z,20.06
2022-08-11T01:40:17.225Z,20.06
2022-08-11T01:44:53.986Z,20.01
2022-08-11T01:50:05.751Z,19.98
2022-08-11T01:53:48.793Z,19.96
2022-08-11T01:57:57.804Z,19.93
2022-08-11T02:02:44.670Z,19.90
2022-08-11T02:06:56.618Z,19.87
2022-08-11T02:11:28.154Z,19.80
2022-08-11T02:15:40.708Z,19.76
2022-08-11T02:20:12.124Z,19.73
2022-08-11T02:24:20.539Z,19.70
2022-08-11T02:28:30.697Z,19.64
2022-08-11T02:32:56.560Z,19.58
2022-08-11T02:37:16.179Z,19.52
2022-08-11T02:41:55.801Z,19.50
2022-08-11T02:46:22.961Z,19.46
2022-08-11T02:50:32.272Z,19.44
2022-08-11T02:54:43.496Z,19.39
2022-08-11T02:59:08.766Z,19.35
2022-08-11T03:03:25.767Z,19.29
2022-08-11T03:07:35.127Z,19.25
2022-08-11T03:12:14.625Z,19.25
2022-08-11T03:16:40.455Z,19.22
2022-08-11T03:20:52.486Z,19.18
2022-08-11T03:25:03.408Z,19.15
2022-08-11T03:29:12.953Z,19.12
2022-08-11T03:33:44.510Z,19.09
2022-08-11T03:37:53.622Z,19.04
2022-08-11T03:42:10.286Z,18.99
2022-08-11T03:46:24.452Z,18.98
2022-08-11T03:50:55.646Z,18.95
2022-08-11T03:55:11.393Z,18.93
2022-08-11T04:00:08.397Z,18.89
2022-08-11T04:04:31.401Z,18.86
2022-08-11T04:09:07.719Z,18.84
2022-08-11T04:13:52.225Z,18.81
2022-08-11T04:18:21.997Z,18.75
2022-08-11T04:22:55.202Z,18.71
2022-08-11T04:27:36.854Z,18.68
2022-08-11T04:32:02.065Z,18.66
2022-08-11T04:36:47.406Z,18.67
2022-08-11T04:41:14.438Z,18.66
2022-08-11T04:45:52.178Z,18.64
2022-08-11T04:50:35.762Z,18.63
2022-08-11T04:55:14.230Z,18.66
2022-08-11T05:00:18.432Z,18.67
2022-08-11T05:05:07.788Z,18.72
2022-08-11T05:09:26.649Z,18.76
2022-08-11T05:13:50.712Z,18.81
2022-08-11T05:18:19.576Z,18.83
2022-08-11T05:22:58.507Z,18.86
2022-08-11T05:27:22.816Z,18.92
2022-08-11T05:31:50.615Z,19.03
2022-08-11T05:36:03.484Z,19.14
2022-08-11T05:40:27.619Z,19.27
2022-08-11T05:44:50.261Z,19.44
2022-08-11T05:49:11.586Z,19.62
2022-08-11T05:53:45.737Z,19.85
2022-08-11T05:57:52.075Z,20.17
2022-08-11T06:02:02.586Z,20.43
2022-08-11T06:06:10.726Z,20.66
2022-08-11T06:10:15.121Z,20.88
2022-08-11T06:14:20.634Z,21.12
2022-08-11T06:18:25.795Z,21.33
2022-08-11T06:22:29.598Z,21.51
2022-08-11T06:26:40.837Z,21.66
2022-08-11T06:30:56.291Z,21.88
2022-08-11T06:35:20.033Z,22.08
2022-08-11T06:39:30.320Z,22.25
2022-08-11T06:43:42.101Z,22.47
2022-08-11T06:48:01.267Z,22.66
2022-08-11T06:52:35.107Z,22.80
2022-08-11T06:57:06.622Z,22.94
2022-08-11T07:01:22.212Z,23.17
2022-08-11T07:05:34.564Z,23.37
2022-08-11T07:10:25.951Z,23.57
2022-08-11T07:14:49.706Z,23.73
2022-08-11T07:19:13.429Z,23.88
2022-08-11T07:23:37.759Z,24.09
2022-08-11T07:28:06.926Z,24.26
2022-08-11T07:32:16.406Z,24.41
2022-08-11T07:36:20.236Z,24.56
2022-08-11T07:40:25.052Z,24.69
2022-08-11T07:44:34.813Z,24.86
2022-08-11T07:48:56.166Z,25.04
2022-08-11T07:53:00.987Z,25.12
2022-08-11T07:57:46.089Z,25.19
2022-08-11T08:02:06.536Z,25.33
2022-08-11T08:06:35.890Z,25.58
2022-08-11T08:10:57.193Z,25.72
2022-08-11T08:15:19.952Z,25.85
2022-08-11T08:19:25.408Z,25.90
2022-08-11T08:23:34.376Z,26.03
2022-08-11T08:27:39.463Z,26.10
2022-08-11T08:31:43.978Z,26.23
2022-08-11T08:35:54.108Z,26.42
2022-08-11T08:40:00.590Z,26.44
2022-08-11T08:44:37.213Z,26.56
2022-08-11T08:48:32.618Z,26.72
2022-08-11T08:52:43.947Z,26.84
2022-08-11T08:56:50.098Z,27.08
2022-08-11T09:00:55.658Z,27.22
2022-08-11T09:04:59.974Z,27.35
2022-08-11T09:09:06.116Z,27.45
2022-08-11T09:13:09.485Z,27.43
2022-08-11T09:17:13.174Z,27.50
2022-08-11T09:21:39.270Z,27.69
2022-08-11T09:26:03.839Z,27.79
2022-08-11T09:30:08.283Z,27.92
2022-08-11T09:34:15.889Z,28.09
2022-08-11T09:38:38.557Z,28.21
2022-08-11T09:43:13.038Z,28.33
2022-08-11T09:47:24.542Z,28.41
2022-08-11T09:51:31.942Z,28.42
2022-08-11T09:55:35.459Z,28.25
2022-08-11T09:59:41.258Z,28.26
2022-08-11T10:03:44.736Z,28.32
2022-08-11T10:07:52.995Z,28.45
2022-08-11T10:11:59.266Z,28.57
2022-08-11T10:16:15.710Z,28.65
2022-08-11T10:20:25.769Z,28.55
2022-08-11T10:24:46.811Z,28.43
2022-08-11T10:29:11.915Z,28.34
2022-08-11T10:33:36.746Z,28.51
2022-08-11T10:38:08.877Z,28.70
2022-08-11T10:42:35.344Z,28.65
2022-08-11T10:47:02.415Z,28.47
2022-08-11T10:51:15.376Z,28.60
2022-08-11T10:55:46.929Z,28.79
2022-08-11T10:59:50.838Z,28.89
2022-08-11T11:03:58.695Z,28.82
2022-08-11T11:08:31.950Z,28.67
2022-08-11T11:12:57.791Z,28.54
2022-08-11T11:17:34.689Z,28.62
2022-08-11T11:21:38.816Z,28.75
2022-08-11T11:26:10.862Z,28.82
2022-08-11T11:30:16.491Z,28.89
2022-08-11T11:34:47.949Z,29.03
2022-08-11T11:38:58.358Z,29.19
2022-08-11T11:43:03.755Z,29.01
2022-08-11T11:47:08.130Z,28.79
2022-08-11T11:51:14.079Z,28.76
2022-08-11T11:55:18.441Z,28.69
2022-08-11T11:59:43.445Z,28.76
2022-08-11T12:03:49.240Z,28.77
2022-08-11T12:08:14.494Z,28.81
2022-08-11T12:12:35.111Z,28.84
2022-08-11T12:16:41.935Z,28.95
2022-08-11T12:20:46.136Z,29.07
2022-08-11T12:25:07.540Z,29.16
2022-08-11T12:29:12.679Z,29.18
2022-08-11T12:33:18.023Z,29.26
2022-08-11T12:37:32.790Z,29.36
2022-08-11T12:41:54.383Z,29.53
2022-08-11T12:46:01.993Z,29.60
2022-08-11T12:50:25.634Z,29.57
2022-08-11T12:54:32.804Z,29.60
2022-08-11T12:58:38.524Z,29.54
2022-08-11T13:02:59.971Z,29.48
2022-08-11T13:07:05.432Z,29.51
2022-08-11T13:11:55.585Z,29.50
2022-08-11T13:15:52.164Z,29.38
2022-08-11T13:19:55.379Z,29.28
2022-08-11T13:24:03.505Z,29.19
2022-08-11T13:28:07.628Z,29.11
2022-08-11T13:32:11.760Z,29.05
2022-08-11T13:36:16.626Z,28.98
2022-08-11T13:40:33.204Z,28.84
2022-08-11T13:44:49.598Z,28.80
2022-08-11T13:49:00.360Z,28.78
2022-08-11T13:53:04.271Z,28.75
2022-08-11T13:58:05.937Z,28.79
2022-08-11T14:02:22.364Z,28.88
2022-08-11T14:06:05.194Z,28.95
2022-08-11T14:10:10.356Z,29.01
2022-08-11T14:14:20.427Z,29.01
2022-08-11T14:18:28.663Z,28.99
2022-08-11T14:22:33.015Z,29.00
2022-08-11T14:26:39.031Z,29.02
2022-08-11T14:31:01.559Z,28.96
2022-08-11T14:35:06.816Z,28.91
2022-08-11T14:39:13.072Z,28.89
2022-08-11T14:44:05.860Z,28.85
2022-08-11T14:48:03.090Z,28.74
2022-08-11T14:52:10.491Z,28.63
2022-08-11T14:56:30.264Z,28.51
2022-08-11T15:00:36.109Z,28.41
2022-08-11T15:04:41.569Z,28.32
2022-08-11T15:08:56.842Z,28.25
2022-08-11T15:13:00.708Z,28.17
2022-08-11T15:17:10.468Z,28.11
2022-08-11T15:21:33.899Z,28.04
2022-08-11T15:25:39.094Z,27.98
2022-08-11T15:30:01.284Z,27.94
2022-08-11T15:34:23.600Z,27.92
2022-08-11T15:38:31.418Z,27.95
2022-08-11T15:42:56.808Z,27.96
2022-08-11T15:47:03.851Z,27.92
2022-08-11T15:51:10.781Z,27.89
2022-08-11T15:55:17.219Z,27.85
2022-08-11T15:59:42.180Z,27.82
2022-08-11T16:04:09.491Z,27.74
2022-08-11T16:08:16.619Z,27.70
2022-08-11T16:12:36.994Z,27.65
2022-08-11T16:16:40.129Z,27.64
2022-08-11T16:20:44.813Z,27.60
2022-08-11T16:27:03.508Z,27.61
2022-08-11T16:29:15.481Z,27.57
2022-08-11T16:33:50.062Z,27.51
2022-08-11T16:38:05.446Z,27.38
2022-08-11T16:43:00.151Z,27.30
2022-08-11T16:47:01.879Z,27.26
2022-08-11T16:51:05.644Z,27.18
2022-08-11T16:55:10.554Z,27.12
2022-08-11T16:59:19.705Z,27.10
2022-08-11T17:03:41.883Z,27.07
2022-08-11T17:08:04.255Z,27.02
2022-08-11T17:12:27.272Z,26.98
2022-08-11T17:16:37.509Z,26.90
2022-08-11T17:20:44.344Z,26.84
2022-08-11T17:24:51.285Z,26.79
2022-08-11T17:28:59.030Z,26.70
2022-08-11T17:33:19.564Z,26.61
2022-08-11T17:37:26.190Z,26.52
2022-08-11T17:41:47.153Z,26.44
2022-08-11T17:46:08.307Z,26.36
2022-08-11T17:50:17.843Z,26.29
2022-08-11T17:54:42.435Z,26.26
2022-08-11T17:59:05.909Z,26.19
2022-08-11T18:03:27.179Z,26.15
2022-08-11T18:07:48.190Z,26.06
2022-08-11T18:12:13.014Z,26.01
2022-08-11T18:16:34.336Z,25.95
2022-08-11T18:20:56.047Z,25.87
2022-08-11T18:25:21.406Z,25.75
2022-08-11T18:29:43.928Z,25.61
2022-08-11T18:34:09.937Z,25.50
2022-08-11T18:38:35.014Z,25.42
2022-08-11T18:43:00.730Z,25.36
2022-08-11T18:47:38.397Z,25.28
2022-08-11T18:52:05.209Z,25.17
2022-08-11T18:56:25.847Z,25.08
2022-08-11T19:00:48.196Z,24.97
2022-08-11T19:05:11.195Z,24.85
2022-08-11T19:09:35.117Z,24.73
2022-08-11T19:13:57.138Z,24.64
2022-08-11T19:18:20.472Z,24.51
2022-08-11T19:22:45.412Z,24.40
2022-08-11T19:27:08.062Z,24.34
2022-08-11T19:31:29.908Z,24.25
2022-08-11T19:35:51.817Z,24.20
2022-08-11T19:40:18.009Z,24.13
2022-08-11T19:44:41.041Z,24.01
2022-08-11T19:49:03.428Z,23.92
2022-08-11T19:53:25.224Z,23.88
2022-08-11T19:57:50.179Z,23.87
2022-08-11T20:02:14.076Z,23.83
2022-08-11T20:06:37.442Z,23.81
2022-08-11T20:10:59.362Z,23.80
2022-08-11T20:15:22.257Z,23.77
2022-08-11T20:19:56.522Z,23.75
2022-08-11T20:24:19.734Z,23.68
2022-08-11T20:28:40.002Z,23.65
2022-08-11T20:33:03.370Z,23.65
2022-08-11T20:37:25.599Z,23.59
2022-08-11T20:41:58.790Z,23.58
2022-08-11T20:46:21.511Z,23.55
2022-08-11T20:50:45.823Z,23.48
2022-08-11T20:55:19.207Z,23.42
2022-08-11T20:59:50.101Z,23.39
2022-08-11T21:04:17.288Z,23.34
2022-08-11T21:08:49.085Z,23.29
2022-08-11T21:13:25.235Z,23.23
2022-08-11T21:18:00.940Z,23.20
2022-08-11T21:22:31.987Z,23.17
2022-08-11T21:27:00.331Z,23.12
2022-08-11T21:31:25.770Z,23.12
2022-08-11T21:35:47.465Z,23.14
2022-08-11T21:40:14.873Z,23.16
2022-08-11T21:44:39.491Z,23.17
2022-08-11T21:49:02.398Z,23.14
2022-08-11T21:53:23.229Z,23.15
2022-08-11T21:57:48.458Z,23.14
2022-08-11T22:02:13.150Z,23.12
2022-08-11T22:06:35.920Z,23.07
2022-08-11T22:10:57.155Z,23.05
2022-08-11T22:15:18.614Z,22.91
2022-08-11T22:19:42.075Z,22.84
2022-08-11T22:24:05.131Z,22.74
2022-08-11T22:28:28.581Z,22.65
2022-08-11T22:32:49.791Z,22.56
2022-08-11T22:37:24.197Z,22.48
2022-08-11T22:41:48.229Z,22.37
2022-08-11T22:46:09.130Z,22.32
2022-08-11T22:50:32.096Z,22.25
2022-08-11T22:54:53.877Z,22.18
2022-08-11T22:59:15.349Z,22.11
2022-08-11T23:03:38.664Z,22.02
2022-08-11T23:08:01.074Z,21.93
2022-08-11T23:12:23.515Z,21.85
2022-08-11T23:16:44.319Z,21.75
2022-08-11T23:21:05.142Z,21.68
2022-08-11T23:25:26.121Z,21.64
2022-08-11T23:29:51.460Z,21.58
2022-08-11T23:34:39.413Z,21.55
2022-08-11T23:38:56.406Z,21.53
2022-08-11T23:43:17.316Z,21.42
2022-08-11T23:47:50.540Z,21.35
2022-08-11T23:52:11.833Z,21.32
2022-08-11T23:56:33.644Z,21.27
